Capt Eddie — WDC3053 — position and weather

sailwx.info

Track history (hours):
 
Tides and Currents Weather Stations Pressure Air Temp Water Temp Dewpoint Dewpoint Depression Visibility Wind Speed Wind Dir Waves Ship Positions

Capt Eddie

Owner: CENTRAL BOAT RENTALS, BERWICK, LA. More information available from US FCC via Universal Licensing System and Coast Guard Vessel Documentation Center.

Last reported at 2018-Jun-14 23:01 UTC. Time now 2018-Jun-17 22:13 UTC.
Position N 29°25' W 090°44'.

Length 20 m; draft 2 m.

Type: Tug. MMSI: 367002050.

Date/timePositionNaut miles runAvg speedWind from/ knotsBaromVisibWave heightAir tempDewpointWater temp
2018-Jun-14 23:01N 29°25' W 090°44'0 6.0
2018-Jun-14 22:59N 29°25' W 090°43'3 6.1
2018-Jun-14 22:30N 29°28' W 090°43'3 6.0
2018-Jun-14 22:00N 29°31' W 090°43'3 5.4
2018-Jun-14 21:30N 29°34' W 090°43'2 3.4
2018-Jun-14 20:59N 29°34' W 090°45'1 1.5
2018-Jun-14 20:30N 29°33' W 090°45'2 3.8
2018-Jun-14 20:00N 29°32' W 090°47'3 6.1
2018-Jun-14 19:29N 29°32' W 090°51'3 6.1
2018-Jun-14 18:58N 29°33' W 090°54'3 0.4
2018-Jun-14 10:53N 29°32' W 090°50'3 7.3
2018-Jun-14 10:30N 29°32' W 090°47'3 6.2
2018-Jun-14 10:00N 29°34' W 090°44'1 2.7
2018-Jun-14 09:31N 29°34' W 090°43'3 6.0
2018-Jun-14 09:01N 29°31' W 090°43'3 6.9
2018-Jun-14 08:30N 29°27' W 090°43'4 6.8
2018-Jun-14 07:55N 29°23' W 090°44'1 0.0
2018-Jun-12 08:29N 29°24' W 090°44'2 4.0
2018-Jun-12 08:00N 29°26' W 090°43'2 4.1
2018-Jun-12 07:30N 29°28' W 090°43'2 4.1
2018-Jun-12 07:00N 29°30' W 090°43'2 4.2
2018-Jun-12 06:30N 29°32' W 090°42'2 3.8
2018-Jun-12 06:00N 29°34' W 090°43'2 3.5
2018-Jun-12 05:30N 29°34' W 090°45'2 3.8
2018-Jun-12 04:59N 29°32' W 090°46'2 4.1
2018-Jun-12 04:30N 29°32' W 090°49'2 4.0
2018-Jun-12 03:58N 29°32' W 090°51'2 3.8
2018-Jun-12 03:22N 29°33' W 090°54'1 3.8
2018-Jun-12 02:58N 29°33' W 090°55'  
2018-Jun-06 12:35N 29°49' W 091°50'1 7.9
2018-Jun-06 12:30N 29°50' W 091°50'  
Track history (hours):
 
Tides and Currents Weather Stations Pressure Air Temp Water Temp Dewpoint Dewpoint Depression Visibility Wind Speed Wind Dir Waves Ship Positions

Capt Eddie

Owner: CENTRAL BOAT RENTALS, BERWICK, LA. More information available from US FCC via Universal Licensing System and Coast Guard Vessel Documentation Center.

Last reported at 2018-Jun-14 23:01 UTC. Time now 2018-Jun-17 22:13 UTC.
Position N 29°25' W 090°44'.

Length 20 m; draft 2 m.

Type: Tug. MMSI: 367002050.

Date/timePositionNaut miles runAvg speedWind from/ knotsBaromVisibWave heightAir tempDewpointWater temp
2018-Jun-14 23:01N 29°25' W 090°44'0 6.0
2018-Jun-14 22:59N 29°25' W 090°43'3 6.1
2018-Jun-14 22:30N 29°28' W 090°43'3 6.0
2018-Jun-14 22:00N 29°31' W 090°43'3 5.4
2018-Jun-14 21:30N 29°34' W 090°43'2 3.4
2018-Jun-14 20:59N 29°34' W 090°45'1 1.5
2018-Jun-14 20:30N 29°33' W 090°45'2 3.8
2018-Jun-14 20:00N 29°32' W 090°47'3 6.1
2018-Jun-14 19:29N 29°32' W 090°51'3 6.1
2018-Jun-14 18:58N 29°33' W 090°54'3 0.4
2018-Jun-14 10:53N 29°32' W 090°50'3 7.3
2018-Jun-14 10:30N 29°32' W 090°47'3 6.2
2018-Jun-14 10:00N 29°34' W 090°44'1 2.7
2018-Jun-14 09:31N 29°34' W 090°43'3 6.0
2018-Jun-14 09:01N 29°31' W 090°43'3 6.9
2018-Jun-14 08:30N 29°27' W 090°43'4 6.8
2018-Jun-14 07:55N 29°23' W 090°44'1 0.0
2018-Jun-12 08:29N 29°24' W 090°44'2 4.0
2018-Jun-12 08:00N 29°26' W 090°43'2 4.1
2018-Jun-12 07:30N 29°28' W 090°43'2 4.1
2018-Jun-12 07:00N 29°30' W 090°43'2 4.2
2018-Jun-12 06:30N 29°32' W 090°42'2 3.8
2018-Jun-12 06:00N 29°34' W 090°43'2 3.5
2018-Jun-12 05:30N 29°34' W 090°45'2 3.8
2018-Jun-12 04:59N 29°32' W 090°46'2 4.1
2018-Jun-12 04:30N 29°32' W 090°49'2 4.0
2018-Jun-12 03:58N 29°32' W 090°51'2 3.8
2018-Jun-12 03:22N 29°33' W 090°54'1 3.8
2018-Jun-12 02:58N 29°33' W 090°55'  
2018-Jun-06 12:35N 29°49' W 091°50'1 7.9
2018-Jun-06 12:30N 29°50' W 091°50'  

Dump ship's entire track history